createdAt,value
2022-11-02T00:03:32.520Z,22.15
2022-11-02T00:05:59.255Z,23.83
2022-11-02T00:08:25.970Z,23.20
2022-11-02T00:10:52.839Z,25.73
2022-11-02T00:13:19.565Z,22.98
2022-11-02T00:15:47.317Z,24.10
2022-11-02T00:18:15.040Z,23.52
2022-11-02T00:20:43.458Z,23.40
2022-11-02T00:23:13.531Z,24.02
2022-11-02T00:25:42.601Z,23.25
2022-11-02T00:28:09.682Z,23.45
2022-11-02T00:30:38.071Z,22.48
2022-11-02T00:33:05.269Z,22.75
2022-11-02T00:35:34.242Z,23.42
2022-11-02T00:38:01.059Z,24.08
2022-11-02T00:40:28.512Z,23.05
2022-11-02T00:42:55.178Z,24.77
2022-11-02T00:45:23.161Z,21.67
2022-11-02T00:47:50.512Z,21.50
2022-11-02T00:50:17.532Z,21.05
2022-11-02T00:52:44.321Z,23.90
2022-11-02T00:55:12.070Z,20.20
2022-11-02T00:57:39.833Z,22.13
2022-11-02T01:00:09.017Z,21.02
2022-11-02T01:02:36.056Z,19.45
2022-11-02T01:05:03.363Z,20.60
2022-11-02T01:07:30.211Z,18.50
2022-11-02T01:09:56.898Z,19.02
2022-11-02T01:12:24.565Z,20.98
2022-11-02T01:14:51.579Z,20.38
2022-11-02T01:17:19.783Z,18.50
2022-11-02T01:19:46.763Z,20.50
2022-11-02T01:22:13.577Z,18.30
2022-11-02T01:24:40.355Z,19.20
2022-11-02T01:27:07.206Z,20.35
2022-11-02T01:29:33.895Z,20.38
2022-11-02T01:32:00.600Z,20.52
2022-11-02T01:34:27.299Z,19.67
2022-11-02T01:36:54.041Z,18.42
2022-11-02T01:39:20.772Z,18.45
2022-11-02T01:41:51.693Z,18.52
2022-11-02T01:44:30.658Z,21.30
2022-11-02T01:47:07.421Z,22.40
2022-11-02T01:49:39.511Z,21.80
2022-11-02T01:52:11.072Z,22.05
2022-11-02T01:54:44.960Z,21.33
2022-11-02T01:57:15.340Z,21.52
2022-11-02T02:00:10.257Z,22.20
2022-11-02T02:02:43.413Z,22.33
2022-11-02T02:05:12.471Z,22.63
2022-11-02T02:07:40.632Z,22.45
2022-11-02T02:10:08.112Z,21.77
2022-11-02T02:12:38.453Z,21.45
2022-11-02T02:15:06.000Z,19.70
2022-11-02T02:17:37.140Z,18.95
2022-11-02T02:20:35.100Z,17.88
2022-11-02T02:23:43.662Z,19.65
2022-11-02T02:26:46.188Z,19.17
2022-11-02T02:29:18.894Z,18.55
2022-11-02T02:32:01.097Z,19.25
2022-11-02T02:34:51.676Z,19.42
2022-11-02T02:37:26.752Z,18.90
2022-11-02T02:40:11.342Z,18.25
2022-11-02T02:42:51.624Z,20.77
2022-11-02T02:45:21.281Z,18.25
2022-11-02T02:48:01.192Z,19.75
2022-11-02T02:52:59.671Z,19.98
2022-11-02T02:55:32.741Z,18.88
2022-11-02T02:58:02.775Z,21.65
2022-11-02T03:00:33.659Z,21.00
2022-11-02T03:03:01.306Z,21.35
2022-11-02T03:05:28.271Z,21.17
2022-11-02T03:07:56.485Z,21.05
2022-11-02T03:10:41.697Z,19.95
2022-11-02T03:13:32.044Z,19.08
2022-11-02T03:16:07.542Z,18.70
2022-11-02T03:18:39.922Z,19.55
2022-11-02T03:21:31.248Z,16.98
2022-11-02T03:24:09.601Z,18.05
2022-11-02T03:26:45.151Z,17.52
2022-11-02T03:29:32.251Z,17.33
2022-11-02T03:32:04.682Z,15.55
2022-11-02T03:34:55.482Z,19.08
2022-11-02T03:37:28.200Z,18.67
2022-11-02T03:40:20.791Z,16.58
2022-11-02T03:42:50.707Z,16.50
2022-11-02T03:47:54.451Z,15.98
2022-11-02T03:50:23.669Z,14.85
2022-11-02T03:53:01.558Z,16.98
2022-11-02T03:55:36.490Z,16.00
2022-11-02T03:58:04.047Z,15.80
2022-11-02T04:00:37.042Z,16.35
2022-11-02T04:03:07.147Z,16.27
2022-11-02T04:05:36.701Z,14.50
2022-11-02T04:08:22.802Z,16.15
2022-11-02T04:11:09.398Z,14.85
2022-11-02T04:13:55.659Z,14.70
2022-11-02T04:16:27.586Z,13.48
2022-11-02T04:19:13.541Z,16.10
2022-11-02T04:21:40.733Z,15.13
2022-11-02T04:24:27.222Z,13.93
2022-11-02T04:26:53.935Z,14.95
2022-11-02T04:29:20.636Z,14.43
2022-11-02T04:31:47.350Z,16.45
2022-11-02T04:34:14.043Z,14.93
2022-11-02T04:36:41.414Z,14.77
2022-11-02T04:39:08.101Z,15.75
2022-11-02T04:41:44.032Z,15.57
2022-11-02T04:44:13.257Z,17.65
2022-11-02T04:46:41.030Z,15.57
2022-11-02T04:49:08.977Z,15.25
2022-11-02T04:51:36.651Z,14.40
2022-11-02T04:54:04.165Z,15.80
2022-11-02T04:56:30.961Z,16.90
2022-11-02T04:58:59.510Z,17.63
2022-11-02T05:01:29.005Z,17.23
2022-11-02T05:03:56.609Z,18.33
2022-11-02T05:06:24.368Z,18.08
2022-11-02T05:08:51.292Z,18.08
2022-11-02T05:11:18.514Z,18.30
2022-11-02T05:13:45.604Z,18.42
2022-11-02T05:16:16.502Z,17.83
2022-11-02T05:18:43.701Z,19.38
2022-11-02T05:21:12.240Z,17.60
2022-11-02T05:23:39.605Z,17.02
2022-11-02T05:26:10.308Z,16.00
2022-11-02T05:28:37.051Z,18.42
2022-11-02T05:31:04.352Z,17.77
2022-11-02T05:33:31.818Z,16.55
2022-11-02T05:35:59.788Z,17.38
2022-11-02T05:38:27.754Z,18.20
2022-11-02T05:40:56.324Z,17.55
2022-11-02T05:43:23.568Z,18.08
2022-11-02T05:45:57.952Z,17.83
2022-11-02T05:48:26.255Z,23.80
2022-11-02T05:50:57.437Z,23.30
2022-11-02T05:53:25.667Z,23.10
2022-11-02T05:55:53.429Z,25.45
2022-11-02T05:58:20.075Z,24.08
2022-11-02T06:00:46.831Z,26.55
2022-11-02T06:03:13.493Z,25.65
2022-11-02T06:05:40.212Z,25.63
2022-11-02T06:08:06.956Z,25.48
2022-11-02T06:10:33.776Z,27.60
2022-11-02T06:13:02.441Z,27.90
2022-11-02T06:15:31.390Z,27.42
2022-11-02T06:17:58.121Z,27.73
2022-11-02T06:20:24.801Z,30.20
2022-11-02T06:22:51.574Z,29.00
2022-11-02T06:25:18.317Z,27.85
2022-11-02T06:27:56.646Z,28.38
2022-11-02T06:30:24.651Z,28.15
2022-11-02T06:32:53.571Z,27.50
2022-11-02T06:35:22.157Z,25.80
2022-11-02T06:37:49.236Z,26.67
2022-11-02T06:40:17.126Z,27.33
2022-11-02T06:42:56.545Z,27.27
2022-11-02T06:45:31.891Z,25.95
2022-11-02T06:47:58.587Z,25.88
2022-11-02T06:50:25.342Z,25.60
2022-11-02T06:52:52.575Z,26.67
2022-11-02T06:55:19.733Z,25.30
2022-11-02T06:57:46.456Z,25.52
2022-11-02T07:00:20.903Z,25.73
2022-11-02T07:03:05.157Z,25.90
2022-11-02T07:05:33.421Z,24.80
2022-11-02T07:08:00.152Z,22.90
2022-11-02T07:10:28.260Z,23.48
2022-11-02T07:12:56.351Z,23.45
2022-11-02T07:15:25.145Z,25.30
2022-11-02T07:17:52.061Z,22.30
2022-11-02T07:20:19.290Z,24.88
2022-11-02T07:22:56.370Z,24.20
2022-11-02T07:25:23.748Z,25.65
2022-11-02T07:27:50.656Z,24.88
2022-11-02T07:30:17.668Z,27.80
2022-11-02T07:32:45.656Z,26.75
2022-11-02T07:35:15.801Z,29.05
2022-11-02T07:37:43.101Z,23.15
2022-11-02T07:40:12.001Z,25.33
2022-11-02T07:42:46.684Z,27.58
2022-11-02T07:45:13.650Z,26.52
2022-11-02T07:47:46.000Z,25.00
2022-11-02T07:50:14.458Z,25.42
2022-11-02T07:52:52.239Z,25.63
2022-11-02T07:55:21.679Z,24.67
2022-11-02T07:58:03.170Z,24.88
2022-11-02T08:00:33.352Z,23.05
2022-11-02T08:03:01.976Z,23.73
2022-11-02T08:05:30.353Z,24.30
2022-11-02T08:08:04.843Z,22.85
2022-11-02T08:10:37.280Z,22.02
2022-11-02T08:13:08.837Z,22.67
2022-11-02T08:15:36.077Z,23.02
2022-11-02T08:18:07.618Z,23.52
2022-11-02T08:20:35.934Z,23.80
2022-11-02T08:23:03.165Z,22.63
2022-11-02T08:25:31.092Z,23.77
2022-11-02T08:27:59.584Z,23.40
2022-11-02T08:30:27.893Z,24.10
2022-11-02T08:32:57.105Z,23.92
2022-11-02T08:35:24.340Z,22.08
2022-11-02T08:37:55.227Z,21.38
2022-11-02T08:40:22.066Z,18.70
2022-11-02T08:45:17.541Z,19.33
2022-11-02T08:47:45.126Z,19.98
2022-11-02T08:50:11.911Z,18.38
2022-11-02T08:52:40.675Z,18.60
2022-11-02T08:55:11.133Z,16.33
2022-11-02T08:57:52.466Z,16.10
2022-11-02T09:00:22.046Z,15.45
2022-11-02T09:03:09.675Z,13.68
2022-11-02T09:05:42.884Z,14.48
2022-11-02T09:08:17.239Z,13.35
2022-11-02T09:10:45.593Z,14.05
2022-11-02T09:13:14.557Z,13.85
2022-11-02T09:15:42.214Z,14.47
2022-11-02T09:18:09.527Z,14.02
2022-11-02T09:20:36.937Z,14.98
2022-11-02T09:23:03.724Z,13.52
2022-11-02T09:25:30.542Z,14.32
2022-11-02T09:27:58.041Z,13.02
2022-11-02T09:30:26.050Z,14.60
2022-11-02T09:33:00.967Z,14.20
2022-11-02T09:35:30.809Z,14.05
2022-11-02T09:40:26.694Z,13.55
2022-11-02T09:43:06.425Z,13.07
2022-11-02T09:45:37.225Z,13.60
2022-11-02T09:48:19.903Z,13.75
2022-11-02T09:51:14.791Z,13.40
2022-11-02T09:53:47.278Z,14.35
2022-11-02T09:56:19.960Z,13.93
2022-11-02T09:58:51.592Z,13.80
2022-11-02T10:01:29.465Z,13.13
2022-11-02T10:04:18.240Z,13.50
2022-11-02T10:06:56.511Z,12.38
2022-11-02T10:09:40.726Z,12.88
2022-11-02T10:12:18.195Z,12.30
2022-11-02T10:14:56.882Z,11.65
2022-11-02T10:17:28.983Z,12.07
2022-11-02T10:19:59.775Z,11.85
2022-11-02T10:22:37.772Z,10.45
2022-11-02T10:25:06.940Z,8.95
2022-11-02T10:27:38.163Z,7.82
2022-11-02T10:30:08.484Z,8.45
2022-11-02T10:32:38.916Z,8.75
2022-11-02T10:35:36.682Z,7.65
2022-11-02T10:38:49.783Z,8.45
2022-11-02T10:41:22.523Z,8.77
2022-11-02T10:44:28.392Z,8.20
2022-11-02T10:47:09.380Z,7.75
2022-11-02T10:49:45.269Z,8.40
2022-11-02T10:52:16.048Z,8.65
2022-11-02T10:54:43.011Z,9.10
2022-11-02T10:57:13.579Z,8.85
2022-11-02T10:59:40.969Z,9.57
2022-11-02T11:02:12.341Z,8.98
2022-11-02T11:04:42.852Z,10.00
2022-11-02T11:07:27.074Z,8.75
2022-11-02T11:09:56.392Z,8.55
2022-11-02T11:12:33.715Z,9.10
2022-11-02T11:20:42.831Z,10.00
2022-11-02T11:23:09.916Z,9.98
2022-11-02T11:25:36.733Z,8.73
2022-11-02T11:28:41.220Z,9.75
2022-11-02T11:31:12.379Z,11.35
2022-11-02T11:33:58.772Z,10.43
2022-11-02T11:36:31.691Z,10.30
2022-11-02T11:39:16.995Z,11.27
2022-11-02T11:41:43.886Z,12.68
2022-11-02T11:44:14.851Z,12.18
2022-11-02T11:46:54.046Z,12.90
2022-11-02T11:50:08.276Z,12.23
2022-11-02T11:52:36.101Z,12.73
2022-11-02T11:55:20.886Z,13.02
2022-11-02T11:58:04.569Z,12.93
2022-11-02T12:00:31.597Z,12.80
2022-11-02T12:03:07.124Z,12.75
2022-11-02T12:05:49.801Z,12.27
2022-11-02T12:08:28.839Z,12.23
2022-11-02T12:11:07.301Z,12.73
2022-11-02T12:14:13.696Z,11.40
2022-11-02T12:16:59.066Z,12.52
2022-11-02T12:19:44.650Z,11.90
2022-11-02T12:22:30.311Z,11.27
2022-11-02T12:24:57.076Z,8.75
2022-11-02T12:27:52.195Z,8.20
2022-11-02T12:30:22.112Z,9.40
2022-11-02T12:33:23.870Z,6.43
2022-11-02T12:36:12.101Z,6.88
2022-11-02T12:39:08.122Z,6.93
2022-11-02T12:42:05.260Z,7.13
2022-11-02T12:44:53.804Z,5.47
2022-11-02T12:47:47.252Z,6.65
2022-11-02T12:50:25.523Z,4.00
2022-11-02T12:52:58.920Z,2.88
2022-11-02T12:55:37.245Z,2.88
2022-11-02T12:58:08.651Z,2.92
2022-11-02T13:00:43.894Z,3.30
2022-11-02T13:03:16.678Z,3.20
2022-11-02T13:05:50.890Z,3.42
2022-11-02T13:08:32.853Z,3.10
2022-11-02T13:11:06.643Z,3.25
2022-11-02T13:13:41.983Z,3.13
2022-11-02T13:16:10.940Z,2.85
2022-11-02T13:18:50.506Z,3.08
2022-11-02T13:21:33.261Z,3.08
2022-11-02T13:24:00.926Z,3.20
2022-11-02T13:26:32.405Z,3.00
2022-11-02T13:29:19.644Z,2.60
2022-11-02T13:31:53.715Z,2.95
2022-11-02T13:34:32.431Z,2.63
2022-11-02T13:37:06.741Z,2.33
2022-11-02T13:39:41.237Z,2.28
2022-11-02T13:42:46.556Z,2.35
2022-11-02T13:45:34.842Z,2.00
2022-11-02T13:48:33.776Z,2.25
2022-11-02T13:51:06.581Z,2.17
2022-11-02T13:53:39.869Z,2.00
2022-11-02T13:56:29.902Z,2.20
2022-11-02T13:59:04.160Z,2.22
2022-11-02T14:01:37.847Z,1.80
2022-11-02T14:04:21.369Z,2.00
2022-11-02T14:06:54.325Z,1.73
2022-11-02T14:09:27.271Z,1.80
2022-11-02T14:12:13.586Z,1.77
2022-11-02T14:14:42.773Z,2.13
2022-11-02T14:17:19.230Z,1.65
2022-11-02T14:19:50.960Z,2.00
2022-11-02T14:22:19.129Z,1.85
2022-11-02T14:24:45.857Z,1.55
2022-11-02T14:27:15.972Z,1.60
2022-11-02T14:29:42.693Z,1.85
2022-11-02T14:32:24.229Z,3.25
2022-11-02T14:35:15.643Z,7.93
2022-11-02T14:38:25.673Z,1.77
2022-11-02T14:41:17.665Z,2.05
2022-11-02T14:44:49.571Z,2.22
2022-11-02T14:47:32.222Z,1.92
2022-11-02T14:50:07.311Z,2.50
2022-11-02T14:52:35.912Z,1.90
2022-11-02T14:55:09.223Z,2.85
2022-11-02T14:57:37.726Z,2.67
2022-11-02T15:00:16.888Z,2.42
2022-11-02T15:02:44.764Z,1.60
2022-11-02T15:05:23.720Z,1.98
2022-11-02T15:07:52.552Z,2.40
2022-11-02T15:10:19.196Z,1.85
2022-11-02T15:12:48.582Z,1.63
2022-11-02T15:15:33.446Z,1.65
2022-11-02T15:18:28.360Z,1.90
2022-11-02T15:21:13.134Z,1.63
2022-11-02T15:23:55.064Z,1.67
2022-11-02T15:26:42.537Z,1.95
2022-11-02T15:29:33.454Z,2.10
2022-11-02T15:32:02.159Z,1.45
2022-11-02T15:34:36.236Z,1.98
2022-11-02T15:37:04.119Z,2.00
2022-11-02T15:39:31.324Z,1.80
2022-11-02T15:42:04.443Z,1.98
2022-11-02T15:44:40.259Z,2.28
2022-11-02T15:47:44.655Z,1.88
2022-11-02T15:50:27.094Z,2.10
2022-11-02T15:53:22.210Z,2.10
2022-11-02T15:56:23.801Z,1.60
2022-11-02T15:59:11.137Z,2.40
2022-11-02T16:01:40.234Z,1.95
2022-11-02T16:04:09.099Z,2.20
2022-11-02T16:06:43.177Z,2.13
2022-11-02T16:09:28.663Z,2.20
2022-11-02T16:12:13.173Z,2.55
2022-11-02T16:14:41.071Z,2.80
2022-11-02T16:17:22.881Z,2.63
2022-11-02T16:19:50.673Z,2.60
2022-11-02T16:22:25.010Z,2.60
2022-11-02T16:24:54.356Z,2.83
2022-11-02T16:27:22.831Z,2.75
2022-11-02T16:29:50.935Z,2.78
2022-11-02T16:32:18.405Z,2.78
2022-11-02T16:34:45.516Z,2.58
2022-11-02T16:37:14.965Z,2.50
2022-11-02T16:39:46.779Z,2.25
2022-11-02T16:42:19.702Z,2.60
2022-11-02T16:44:59.066Z,2.47
2022-11-02T16:47:37.682Z,2.40
2022-11-02T16:50:17.980Z,2.58
2022-11-02T16:52:54.105Z,2.85
2022-11-02T16:55:37.816Z,2.97
2022-11-02T16:58:08.267Z,2.33
2022-11-02T17:00:36.045Z,2.65
2022-11-02T17:03:14.436Z,2.60
2022-11-02T17:05:43.075Z,2.50
2022-11-02T17:08:30.238Z,3.00
2022-11-02T17:10:59.454Z,2.63
2022-11-02T17:13:28.824Z,2.75
2022-11-02T17:15:57.019Z,2.45
2022-11-02T17:18:29.212Z,3.58
2022-11-02T17:21:13.998Z,2.80
2022-11-02T17:23:43.836Z,2.28
2022-11-02T17:29:01.800Z,2.55
2022-11-02T17:31:38.618Z,2.75
2022-11-02T17:34:17.897Z,2.78
2022-11-02T17:36:47.731Z,3.30
2022-11-02T17:39:16.684Z,3.17
2022-11-02T17:42:03.533Z,3.38
2022-11-02T17:44:32.768Z,2.97
2022-11-02T17:46:59.611Z,2.97
2022-11-02T17:49:26.863Z,2.95
2022-11-02T17:51:57.902Z,2.55
2022-11-02T17:54:25.519Z,3.30
2022-11-02T17:56:52.607Z,3.55
2022-11-02T17:59:19.380Z,2.85
2022-11-02T18:01:46.904Z,3.33
2022-11-02T18:04:15.621Z,3.33
2022-11-02T18:06:43.039Z,3.85
2022-11-02T18:09:14.702Z,3.13
2022-11-02T18:11:42.020Z,3.20
2022-11-02T18:14:14.612Z,2.92
2022-11-02T18:16:42.180Z,3.40
2022-11-02T18:19:09.909Z,3.30
2022-11-02T18:21:37.756Z,2.97
2022-11-02T18:24:05.083Z,3.67
2022-11-02T18:26:32.289Z,3.10
2022-11-02T18:28:59.820Z,3.83
2022-11-02T18:31:27.321Z,3.65
2022-11-02T18:33:56.719Z,3.70
2022-11-02T18:36:25.089Z,4.32
2022-11-02T18:38:52.378Z,7.13
2022-11-02T18:41:35.165Z,5.22
2022-11-02T18:44:10.285Z,4.75
2022-11-02T18:46:42.425Z,4.97
2022-11-02T18:49:10.169Z,4.47
2022-11-02T18:51:37.791Z,4.45
2022-11-02T18:54:07.111Z,4.05
2022-11-02T18:56:34.862Z,4.20
2022-11-02T18:59:02.461Z,4.65
2022-11-02T19:01:29.985Z,4.13
2022-11-02T19:03:59.498Z,6.72
2022-11-02T19:06:47.942Z,7.53
2022-11-02T19:09:21.096Z,4.82
2022-11-02T19:12:00.918Z,4.50
2022-11-02T19:14:30.792Z,4.43
2022-11-02T19:16:58.271Z,4.03
2022-11-02T19:19:25.912Z,5.05
2022-11-02T19:21:54.805Z,5.35
2022-11-02T19:24:23.242Z,4.72
2022-11-02T19:26:51.546Z,4.55
2022-11-02T19:29:19.787Z,4.80
2022-11-02T19:31:47.839Z,4.05
2022-11-02T19:34:16.483Z,4.38
2022-11-02T19:36:46.788Z,5.55
2022-11-02T19:39:14.054Z,4.10
2022-11-02T19:41:41.609Z,4.68
2022-11-02T19:44:09.668Z,4.05
2022-11-02T19:46:37.000Z,4.35
2022-11-02T19:49:04.586Z,5.22
2022-11-02T19:51:33.451Z,4.68
2022-11-02T19:54:03.032Z,7.68
2022-11-02T19:56:33.327Z,9.57
2022-11-02T19:59:01.683Z,8.95
2022-11-02T20:01:34.716Z,6.07
2022-11-02T20:04:03.183Z,5.80
2022-11-02T20:06:37.513Z,5.22
2022-11-02T20:09:07.930Z,5.10
2022-11-02T20:11:37.799Z,5.18
2022-11-02T20:14:06.060Z,5.47
2022-11-02T20:16:33.198Z,5.45
2022-11-02T20:19:00.952Z,6.63
2022-11-02T20:21:34.612Z,5.65
2022-11-02T20:24:06.277Z,5.60
2022-11-02T20:26:35.527Z,6.10
2022-11-02T20:29:04.397Z,6.60
2022-11-02T20:31:36.297Z,4.95
2022-11-02T20:34:05.175Z,5.63
2022-11-02T20:36:33.177Z,5.53
2022-11-02T20:39:03.640Z,5.10
2022-11-02T20:41:31.556Z,5.93
2022-11-02T20:43:59.072Z,5.72
2022-11-02T20:46:38.303Z,5.72
2022-11-02T20:49:20.666Z,6.13
2022-11-02T20:51:51.423Z,5.53
2022-11-02T20:54:20.169Z,5.90
2022-11-02T20:56:48.218Z,5.47
2022-11-02T20:59:16.027Z,5.72
2022-11-02T21:01:43.297Z,5.22
2022-11-02T21:04:12.843Z,5.88
2022-11-02T21:06:45.592Z,5.50
2022-11-02T21:09:14.156Z,5.80
2022-11-02T21:11:59.961Z,5.88
2022-11-02T21:14:27.086Z,6.10
2022-11-02T21:16:54.035Z,6.45
2022-11-02T21:19:20.887Z,7.45
2022-11-02T21:21:48.069Z,7.40
2022-11-02T21:24:14.814Z,6.60
2022-11-02T21:26:41.715Z,6.40
2022-11-02T21:29:09.839Z,6.13
2022-11-02T21:31:37.071Z,6.15
2022-11-02T21:34:04.089Z,7.07
2022-11-02T21:36:31.073Z,7.07
2022-11-02T21:38:58.951Z,6.97
2022-11-02T21:41:28.919Z,6.80
2022-11-02T21:46:25.740Z,6.78
2022-11-02T21:48:52.948Z,6.13
2022-11-02T21:51:22.453Z,6.05
2022-11-02T21:53:50.624Z,5.40
2022-11-02T21:56:20.458Z,5.70
2022-11-02T21:58:47.874Z,5.65
2022-11-02T22:01:34.651Z,5.55
2022-11-02T22:04:01.575Z,6.07
2022-11-02T22:06:31.576Z,6.72
2022-11-02T22:08:59.778Z,7.75
2022-11-02T22:11:27.739Z,6.57
2022-11-02T22:13:58.464Z,6.45
2022-11-02T22:16:31.906Z,6.18
2022-11-02T22:19:16.599Z,6.07
2022-11-02T22:21:45.065Z,5.63
2022-11-02T22:24:12.303Z,6.20
2022-11-02T22:26:39.758Z,5.70
2022-11-02T22:29:06.562Z,5.80
2022-11-02T22:31:36.007Z,5.72
2022-11-02T22:34:04.828Z,5.53
2022-11-02T22:36:33.754Z,5.75
2022-11-02T22:39:02.300Z,6.47
2022-11-02T22:41:34.372Z,6.78
2022-11-02T22:44:10.534Z,7.13
2022-11-02T22:46:40.017Z,6.22
2022-11-02T22:49:08.571Z,6.68
2022-11-02T22:51:40.895Z,7.15
2022-11-02T22:54:10.117Z,6.65
2022-11-02T22:56:36.851Z,7.20
2022-11-02T22:59:04.900Z,6.15
2022-11-02T23:01:32.726Z,5.95
2022-11-02T23:04:01.283Z,5.80
2022-11-02T23:06:28.820Z,6.82
2022-11-02T23:09:00.461Z,7.57
2022-11-02T23:11:33.831Z,6.63
2022-11-02T23:14:08.803Z,6.55
2022-11-02T23:16:37.869Z,5.22
2022-11-02T23:19:28.697Z,6.05
2022-11-02T23:22:23.003Z,5.57
2022-11-02T23:25:14.288Z,5.93
2022-11-02T23:28:04.285Z,6.18
2022-11-02T23:30:54.220Z,6.07
2022-11-02T23:33:22.446Z,5.90
2022-11-02T23:36:07.974Z,6.40
2022-11-02T23:38:53.104Z,5.95
2022-11-02T23:41:20.058Z,5.82
2022-11-02T23:43:47.251Z,5.97
2022-11-02T23:46:14.549Z,6.57
2022-11-02T23:48:42.349Z,5.60
2022-11-02T23:51:30.772Z,5.75
2022-11-02T23:54:16.337Z,6.25
2022-11-02T23:56:43.658Z,5.93
2022-11-02T23:59:16.630Z,6.35
